Time;durP1;ratioP1;P1;durP2;ratioP2;P2;SDS_P1;SDS_P2;PMS_P1;PMS_P2;Temp;Humidity;BMP_temperature;BMP_pressure;BME280_temperature;BME280_humidity;BME280_pressure;Samples;Min_cycle;Max_cycle;Signal;HPM_P1;HPM_P2
2022/04/19 00:02:19;;;;;;;6.45;3.63;;;17.60;61.70;;;;;;4988463;28;20284;-58
2022/04/19 00:04:51;;;;;;;6.35;4.00;;;17.60;61.70;;;;;;4987562;28;20755;-58
2022/04/19 00:07:22;;;;;;;10.02;4.22;;;17.70;61.70;;;;;;4986817;28;20715;-55
2022/04/19 00:09:52;;;;;;;7.38;4.80;;;17.80;61.90;;;;;;4988581;28;20280;-54
2022/04/19 00:12:23;;;;;;;7.78;5.20;;;17.90;62.10;;;;;;4988598;28;20255;-56
2022/04/19 00:14:54;;;;;;;12.70;6.88;;;18.00;62.10;;;;;;4987826;28;20684;-55
2022/04/19 00:17:24;;;;;;;14.40;8.52;;;18.10;62.10;;;;;;4987596;28;20759;-57
2022/04/19 00:19:57;;;;;;;13.30;8.48;;;18.10;61.90;;;;;;4989151;28;20193;-55
2022/04/19 00:22:28;;;;;;;16.50;10.75;;;18.20;62.10;;;;;;4988790;28;20271;-56
2022/04/19 00:24:59;;;;;;;18.55;11.75;;;18.30;61.70;;;;;;4989230;28;20217;-58
2022/04/19 00:27:30;;;;;;;16.58;11.85;;;18.40;61.70;;;;;;4989041;28;20229;-57
2022/04/19 00:30:00;;;;;;;17.25;11.88;;;18.40;61.50;;;;;;4988751;28;20264;-55
2022/04/19 00:32:31;;;;;;;18.13;11.95;;;18.50;61.40;;;;;;4988299;28;20225;-55
2022/04/19 00:35:03;;;;;;;19.73;12.60;;;18.50;61.30;;;;;;4987943;28;20229;-58
2022/04/19 00:37:34;;;;;;;18.60;12.65;;;18.60;61.20;;;;;;4988379;28;20581;-58
2022/04/19 00:40:05;;;;;;;21.67;12.02;;;18.60;61.00;;;;;;4988364;28;20229;-56
2022/04/19 00:42:36;;;;;;;15.60;10.23;;;18.70;60.90;;;;;;4988222;28;20233;-58
2022/04/19 00:45:08;;;;;;;14.57;10.75;;;18.70;60.70;;;;;;4988556;28;20626;-56
2022/04/19 00:47:39;;;;;;;15.50;9.90;;;18.80;60.70;;;;;;4988867;28;20385;-53
2022/04/19 00:50:12;;;;;;;14.65;11.10;;;18.80;60.60;;;;;;4988336;28;20284;-58
2022/04/19 00:52:44;;;;;;;16.17;11.23;;;18.90;60.50;;;;;;4988490;28;20647;-58
2022/04/19 00:55:15;;;;;;;13.52;9.95;;;19.00;60.40;;;;;;4985103;28;20339;-57
2022/04/19 00:57:46;;;;;;;14.30;9.82;;;19.00;60.20;;;;;;4987349;28;20260;-58
2022/04/19 01:00:17;;;;;;;13.07;8.93;;;19.00;60.10;;;;;;4987072;28;20198;-54
2022/04/19 01:02:53;;;;;;;15.95;9.80;;;19.10;60.20;;;;;;4987360;28;20981;-56
2022/04/19 01:05:25;;;;;;;13.90;9.00;;;19.20;60.10;;;;;;4987069;28;20229;-52
2022/04/19 01:07:56;;;;;;;13.77;9.60;;;19.20;60.00;;;;;;4986622;28;20221;-55
2022/04/19 01:10:27;;;;;;;12.73;9.13;;;19.20;59.90;;;;;;4987105;28;20194;-56
2022/04/19 01:15:48;;;;;;;14.10;8.68;;;19.30;59.80;;;;;;4986589;28;20307;-60
2022/04/19 01:18:20;;;;;;;14.13;8.15;;;19.40;59.80;;;;;;4986548;28;20661;-57
2022/04/19 01:20:53;;;;;;;12.10;7.97;;;19.40;59.80;;;;;;4987169;28;20724;-60
2022/04/19 01:23:25;;;;;;;11.93;8.10;;;19.40;59.80;;;;;;4986111;28;20194;-60
2022/04/19 01:25:57;;;;;;;12.60;7.47;;;19.40;59.80;;;;;;4987431;28;20649;-59
2022/04/19 01:28:27;;;;;;;12.82;7.63;;;19.50;59.90;;;;;;4987745;28;20560;-53
2022/04/19 01:30:58;;;;;;;11.70;7.35;;;19.50;59.90;;;;;;4990873;28;20194;-56
2022/04/19 01:33:28;;;;;;;11.07;6.85;;;19.50;59.90;;;;;;4990984;28;20227;-59
2022/04/19 01:35:59;;;;;;;13.70;6.93;;;19.60;59.90;;;;;;4987981;28;20225;-59
2022/04/19 01:38:31;;;;;;;12.48;6.40;;;19.60;59.90;;;;;;4987982;28;20198;-60
2022/04/19 01:41:02;;;;;;;12.65;6.40;;;19.70;59.90;;;;;;4990677;28;20201;-58
2022/04/19 01:43:33;;;;;;;10.45;6.47;;;19.70;59.90;;;;;;4991088;28;20248;-60
2022/04/19 01:46:03;;;;;;;12.30;6.32;;;19.70;59.90;;;;;;4989804;28;20222;-60
2022/04/19 01:48:34;;;;;;;13.25;6.15;;;19.80;59.90;;;;;;4990439;28;20241;-56
2022/04/19 01:51:04;;;;;;;11.05;6.05;;;19.80;59.90;;;;;;4987367;28;20246;-61
2022/04/19 01:53:37;;;;;;;12.15;5.90;;;19.80;59.80;;;;;;4974976;28;20194;-62
2022/04/19 01:56:08;;;;;;;8.55;4.97;;;19.80;59.80;;;;;;4974833;28;20230;-60
2022/04/19 01:58:38;;;;;;;7.93;4.95;;;19.90;59.80;;;;;;4975182;28;20203;-63
2022/04/19 02:01:09;;;;;;;9.68;5.65;;;19.90;59.70;;;;;;4974908;28;20201;-64
2022/04/19 02:03:39;;;;;;;9.48;5.45;;;19.90;59.50;;;;;;4975158;28;20218;-60
2022/04/19 02:06:11;;;;;;;7.88;5.32;;;19.90;59.40;;;;;;4974970;28;20316;-62
2022/04/19 02:08:43;;;;;;;9.35;5.30;;;20.00;59.40;;;;;;4974519;28;20216;-63
2022/04/19 02:11:14;;;;;;;9.02;5.45;;;20.00;59.40;;;;;;4979930;28;20225;-60
2022/04/19 02:13:44;;;;;;;8.75;4.82;;;20.00;59.30;;;;;;4989433;28;20804;-60
2022/04/19 02:16:16;;;;;;;8.60;5.50;;;20.00;59.30;;;;;;4991083;28;20229;-63
2022/04/19 02:18:48;;;;;;;12.13;5.30;;;20.00;59.20;;;;;;4991358;28;20229;-63
2022/04/19 02:21:18;;;;;;;8.05;5.00;;;20.10;59.20;;;;;;4987664;28;20205;-62
2022/04/19 02:23:51;;;;;;;8.27;4.82;;;20.10;59.10;;;;;;4990454;28;20248;-61
2022/04/19 02:26:23;;;;;;;9.00;5.28;;;20.10;59.00;;;;;;4990271;28;20291;-62
2022/04/19 02:28:54;;;;;;;7.18;4.88;;;20.10;59.00;;;;;;4990344;28;20635;-60
2022/04/19 02:31:26;;;;;;;8.77;4.78;;;20.10;58.90;;;;;;4990716;28;20248;-62
2022/04/19 02:33:58;;;;;;;5.93;4.65;;;20.10;58.90;;;;;;4987751;28;20237;-62
2022/04/19 02:36:29;;;;;;;6.88;4.60;;;20.10;58.90;;;;;;4989368;28;20321;-63
2022/04/19 02:39:01;;;;;;;7.25;5.03;;;20.10;58.80;;;;;;4989645;28;20232;-62
2022/04/19 02:41:32;;;;;;;7.00;4.80;;;20.10;58.70;;;;;;4990401;28;20198;-63
2022/04/19 02:44:02;;;;;;;6.70;4.78;;;20.10;58.70;;;;;;4990903;28;20202;-58
2022/04/19 02:46:33;;;;;;;7.43;4.68;;;20.10;58.60;;;;;;4990317;28;20260;-60
2022/04/19 02:49:05;;;;;;;8.23;4.65;;;20.20;58.70;;;;;;4989759;28;20193;-61
2022/04/19 02:51:35;;;;;;;8.32;4.78;;;20.20;58.60;;;;;;4989887;28;20288;-63
2022/04/19 02:54:08;;;;;;;8.65;4.85;;;20.20;58.60;;;;;;4989727;28;20272;-61
2022/04/19 02:56:38;;;;;;;6.90;4.60;;;20.20;58.50;;;;;;4988669;28;20225;-63
2022/04/19 02:59:09;;;;;;;7.90;4.60;;;20.20;58.50;;;;;;4990023;28;20193;-60
2022/04/19 03:01:39;;;;;;;7.53;4.88;;;20.20;58.40;;;;;;4988613;28;20197;-63
2022/04/19 03:04:10;;;;;;;6.03;4.45;;;20.30;58.40;;;;;;5010781;22;20224;-63
2022/04/19 03:06:41;;;;;;;7.28;4.50;;;20.30;58.30;;;;;;5009445;28;20217;-64
2022/04/19 03:09:13;;;;;;;7.90;4.30;;;20.30;58.30;;;;;;5007551;28;20197;-60
2022/04/19 03:11:44;;;;;;;5.55;3.90;;;20.30;58.20;;;;;;5008303;28;20271;-63
2022/04/19 03:14:14;;;;;;;6.45;4.10;;;20.30;58.20;;;;;;5009750;28;20653;-63
2022/04/19 03:16:45;;;;;;;7.53;4.25;;;20.40;58.20;;;;;;5008722;28;20318;-62
2022/04/19 03:19:16;;;;;;;5.82;4.10;;;20.40;58.20;;;;;;5009217;28;20257;-62
2022/04/19 03:21:47;;;;;;;7.32;4.38;;;20.40;58.10;;;;;;5008973;28;20193;-63
2022/04/19 03:29:52;;;;;;;5.70;4.05;;;20.50;58.00;;;;;;5009130;28;20200;-62
2022/04/19 03:32:23;;;;;;;8.65;4.13;;;20.50;57.90;;;;;;5009145;28;20196;-62
2022/04/19 03:34:54;;;;;;;6.60;4.10;;;20.50;57.90;;;;;;5008930;28;20232;-63
2022/04/19 03:37:24;;;;;;;5.60;3.95;;;20.50;57.90;;;;;;5009021;28;20235;-62
2022/04/19 03:39:57;;;;;;;6.72;4.10;;;20.50;57.90;;;;;;5008853;28;20225;-62
2022/04/19 03:42:27;;;;;;;9.40;4.45;;;20.50;57.80;;;;;;5006729;28;20216;-60
2022/04/19 03:44:58;;;;;;;7.05;4.65;;;20.50;57.90;;;;;;5009148;28;20248;-61
2022/04/19 03:47:28;;;;;;;7.53;4.47;;;20.50;57.90;;;;;;5009838;28;20201;-60
2022/04/19 03:50:00;;;;;;;5.65;3.40;;;20.60;58.00;;;;;;5008891;28;20255;-61
2022/04/19 03:52:30;;;;;;;6.55;4.18;;;20.60;58.00;;;;;;5008751;28;20193;-60
2022/04/19 03:55:02;;;;;;;8.55;4.68;;;20.60;58.00;;;;;;5009257;28;20315;-59
2022/04/19 03:57:34;;;;;;;5.85;3.72;;;20.70;58.10;;;;;;5008903;28;20279;-60
2022/04/19 04:00:06;;;;;;;5.13;4.13;;;20.70;58.00;;;;;;5008562;28;20251;-60
2022/04/19 04:02:37;;;;;;;7.93;3.92;;;20.70;58.00;;;;;;5008603;28;20251;-60
2022/04/19 04:05:08;;;;;;;7.05;3.85;;;20.70;57.90;;;;;;5008976;28;20298;-60
2022/04/19 04:07:39;;;;;;;6.05;4.07;;;20.80;58.00;;;;;;5008978;28;20196;-60
2022/04/19 04:10:13;;;;;;;9.10;4.75;;;20.80;57.90;;;;;;5008972;28;20561;-60
2022/04/19 04:12:43;;;;;;;7.05;4.10;;;20.80;57.90;;;;;;5008443;28;20193;-61
2022/04/19 04:15:14;;;;;;;7.43;4.75;;;20.90;57.90;;;;;;5008822;28;20302;-60
2022/04/19 04:17:44;;;;;;;8.15;4.55;;;20.90;57.80;;;;;;5007945;28;20315;-60
2022/04/19 04:20:15;;;;;;;6.32;4.32;;;20.90;57.80;;;;;;5008319;28;20285;-61
2022/04/19 04:22:46;;;;;;;8.00;4.63;;;20.90;57.70;;;;;;5008500;28;20213;-60
2022/04/19 04:25:18;;;;;;;7.57;4.78;;;20.90;57.70;;;;;;5008178;28;20216;-60
2022/04/19 04:27:49;;;;;;;8.57;5.25;;;20.90;57.70;;;;;;5008079;28;20201;-61
2022/04/19 04:30:20;;;;;;;8.82;4.78;;;21.00;57.70;;;;;;5005450;28;20201;-61
2022/04/19 04:32:50;;;;;;;7.63;5.50;;;21.00;57.70;;;;;;5008143;28;20228;-62
2022/04/19 04:35:21;;;;;;;9.93;5.35;;;21.00;57.60;;;;;;5007294;28;20212;-61
2022/04/19 04:37:52;;;;;;;8.40;5.40;;;21.00;57.60;;;;;;5008327;28;20224;-60
2022/04/19 04:40:24;;;;;;;7.57;4.72;;;21.10;57.50;;;;;;5007396;28;20259;-62
2022/04/19 04:42:55;;;;;;;8.15;4.68;;;21.10;57.50;;;;;;5008596;28;20197;-61
2022/04/19 04:45:26;;;;;;;8.05;4.63;;;21.20;57.50;;;;;;5006695;28;20213;-61
2022/04/19 04:50:49;;;;;;;7.28;4.45;;;21.20;57.30;;;;;;4970373;28;20273;-59
2022/04/19 04:53:19;;;;;;;8.88;4.20;;;21.20;57.20;;;;;;5008679;28;20197;-60
2022/04/19 04:55:52;;;;;;;6.63;4.07;;;21.30;57.20;;;;;;5008225;28;20774;-60
2022/04/19 04:58:22;;;;;;;7.38;4.75;;;21.30;57.20;;;;;;5007627;28;20193;-61
2022/04/19 05:00:53;;;;;;;7.68;4.45;;;21.30;57.10;;;;;;5008332;28;20197;-61
2022/04/19 05:03:23;;;;;;;5.80;4.15;;;21.30;57.10;;;;;;4992346;28;20705;-64
2022/04/19 05:05:54;;;;;;;6.00;4.03;;;21.30;57.10;;;;;;4995287;28;20221;-63
2022/04/19 05:08:24;;;;;;;8.27;4.50;;;21.40;57.10;;;;;;4995269;28;20256;-60
2022/04/19 05:10:57;;;;;;;10.05;4.20;;;21.40;57.00;;;;;;4995203;28;20673;-60
2022/04/19 05:13:28;;;;;;;9.10;4.15;;;21.40;57.00;;;;;;4995229;28;20256;-60
2022/04/19 05:41:57;;;;;;;11.23;6.05;;;21.50;56.80;;;;;;5308805;22;20299;-58
2022/04/19 05:44:29;;;;;;;20.40;10.18;;;21.50;56.70;;;;;;5008925;28;20614;-60
2022/04/19 05:47:00;;;;;;;17.75;9.10;;;21.40;55.70;;;;;;5007234;28;20192;-60
2022/04/19 05:49:30;;;;;;;18.02;9.77;;;21.30;55.60;;;;;;5011025;28;20252;-61
2022/04/19 05:52:01;;;;;;;15.75;8.98;;;21.30;55.70;;;;;;5010754;28;20227;-62
2022/04/19 05:54:32;;;;;;;15.23;8.48;;;21.30;55.80;;;;;;5011138;28;20279;-61
2022/04/19 05:57:04;;;;;;;15.20;8.95;;;21.20;55.80;;;;;;5010650;28;20635;-61
2022/04/19 05:59:35;;;;;;;14.43;8.60;;;21.20;55.80;;;;;;5010464;28;20193;-60
2022/04/19 06:04:57;;;;;;;13.43;8.52;;;21.20;55.90;;;;;;5009599;28;20366;-61
2022/04/19 06:07:28;;;;;;;15.20;8.15;;;21.10;55.80;;;;;;5009145;28;20281;-59
2022/04/19 06:09:58;;;;;;;11.90;7.90;;;21.10;55.80;;;;;;5009228;28;20695;-59
2022/04/19 06:12:31;;;;;;;10.32;7.50;;;21.10;55.90;;;;;;5009143;28;20229;-61
2022/04/19 06:15:01;;;;;;;12.40;7.82;;;21.10;55.90;;;;;;5009618;28;20216;-59
2022/04/19 06:17:32;;;;;;;12.75;8.30;;;21.10;56.00;;;;;;5010131;28;20248;-58
2022/04/19 06:20:04;;;;;;;13.52;8.00;;;21.00;55.90;;;;;;5007382;28;20206;-58
2022/04/19 06:22:35;;;;;;;11.57;8.52;;;21.00;56.00;;;;;;5008011;28;20200;-59
2022/04/19 06:25:06;;;;;;;13.98;8.13;;;21.00;56.00;;;;;;5008986;28;20275;-62
2022/04/19 06:27:39;;;;;;;10.43;7.97;;;21.00;56.00;;;;;;5008550;28;20251;-60
2022/04/19 06:30:10;;;;;;;11.73;7.90;;;21.00;56.00;;;;;;5009279;28;20676;-60
2022/04/19 06:32:41;;;;;;;11.48;7.90;;;20.90;55.90;;;;;;5008976;28;20197;-60
2022/04/19 06:35:12;;;;;;;10.30;7.72;;;20.90;55.90;;;;;;5008245;28;20315;-61
2022/04/19 06:37:42;;;;;;;10.48;6.90;;;21.00;56.00;;;;;;5009458;28;20225;-61
2022/04/19 06:40:14;;;;;;;10.38;7.40;;;20.90;55.90;;;;;;5008063;28;20193;-60
2022/04/19 06:42:46;;;;;;;11.15;7.68;;;20.90;55.90;;;;;;5008953;28;20682;-59
2022/04/19 06:45:17;;;;;;;11.82;7.90;;;20.90;55.90;;;;;;5008861;28;20208;-58
2022/04/19 06:47:48;;;;;;;9.40;6.72;;;20.80;55.90;;;;;;5009220;28;20189;-59
2022/04/19 06:50:18;;;;;;;11.32;7.22;;;20.80;56.00;;;;;;5008726;28;20201;-60
2022/04/19 06:52:49;;;;;;;10.98;7.45;;;20.80;56.00;;;;;;5008766;28;20193;-59
2022/04/19 06:55:19;;;;;;;11.88;7.28;;;20.80;56.00;;;;;;5009354;28;20217;-60
2022/04/19 06:57:52;;;;;;;9.95;7.72;;;20.70;56.00;;;;;;5008805;28;20576;-60
2022/04/19 07:00:23;;;;;;;12.38;7.25;;;20.70;56.00;;;;;;5007644;28;20203;-60
2022/04/19 07:02:53;;;;;;;11.05;7.20;;;20.70;56.00;;;;;;5008783;28;20205;-58
2022/04/19 07:05:24;;;;;;;11.07;6.90;;;20.70;56.00;;;;;;5008977;28;20354;-61
2022/04/19 07:07:54;;;;;;;9.38;7.05;;;20.60;56.00;;;;;;5008101;28;20278;-58
2022/04/19 07:10:25;;;;;;;11.27;7.57;;;20.60;55.90;;;;;;5008074;28;20201;-60
2022/04/19 07:12:57;;;;;;;9.25;6.65;;;20.60;55.90;;;;;;5008237;28;20220;-58
2022/04/19 07:15:28;;;;;;;9.88;6.60;;;20.60;55.90;;;;;;5007703;28;20240;-58
2022/04/19 07:17:58;;;;;;;8.88;6.68;;;20.50;56.10;;;;;;5008011;28;20229;-60
2022/04/19 07:28:50;;;;;;;9.40;6.53;;;20.50;55.90;;;;;;5008331;28;20262;-59
2022/04/19 07:31:20;;;;;;;10.90;7.35;;;20.40;55.90;;;;;;5007428;28;20189;-60
2022/04/19 07:33:51;;;;;;;9.73;6.82;;;20.40;56.00;;;;;;5008556;28;20251;-59
2022/04/19 07:36:21;;;;;;;10.10;7.55;;;20.40;56.00;;;;;;5007691;28;20746;-59
2022/04/19 07:38:52;;;;;;;9.35;6.68;;;20.30;55.90;;;;;;5008726;28;20657;-59
2022/04/19 07:41:22;;;;;;;9.02;6.97;;;20.30;55.90;;;;;;5006745;28;20665;-59
2022/04/19 07:43:55;;;;;;;9.40;6.93;;;20.30;56.00;;;;;;5007951;28;20197;-59
2022/04/19 07:46:25;;;;;;;8.55;6.50;;;20.20;55.90;;;;;;5008464;28;20220;-58
2022/04/19 07:48:56;;;;;;;8.18;6.50;;;20.20;55.90;;;;;;5005320;28;20221;-59
2022/04/19 07:51:27;;;;;;;7.95;6.68;;;20.20;55.90;;;;;;5007252;28;20225;-59
2022/04/19 07:53:58;;;;;;;8.48;6.47;;;20.10;55.80;;;;;;5007374;28;20192;-58
2022/04/19 07:56:29;;;;;;;8.75;6.88;;;20.20;55.90;;;;;;5007352;28;20213;-59
2022/04/19 07:59:01;;;;;;;8.25;5.97;;;20.10;55.90;;;;;;5007654;28;20189;-58
2022/04/19 08:01:31;;;;;;;9.02;6.47;;;20.10;55.90;;;;;;5008144;28;20201;-58
2022/04/19 08:04:02;;;;;;;7.95;6.30;;;20.10;56.50;;;;;;5007491;28;20193;-59
2022/04/19 08:06:33;;;;;;;8.38;6.53;;;20.00;55.90;;;;;;5007487;28;20213;-59
2022/04/19 08:09:03;;;;;;;8.10;6.78;;;20.00;55.90;;;;;;5002749;28;20256;-59
2022/04/19 08:11:34;;;;;;;8.05;6.60;;;20.00;55.90;;;;;;4992024;28;20275;-59
2022/04/19 08:14:07;;;;;;;8.20;6.32;;;20.00;55.90;;;;;;4991754;28;20197;-60
2022/04/19 08:16:37;;;;;;;9.10;6.18;;;19.90;55.90;;;;;;4992017;28;20594;-58
2022/04/19 08:19:08;;;;;;;9.75;6.72;;;19.90;55.90;;;;;;4992691;28;20198;-58
2022/04/19 08:21:38;;;;;;;10.93;6.55;;;19.90;55.90;;;;;;4991646;28;20253;-58
2022/04/19 08:24:09;;;;;;;9.40;6.63;;;19.90;55.90;;;;;;4992139;28;20205;-59
2022/04/19 08:26:40;;;;;;;9.80;6.88;;;19.90;55.90;;;;;;4991572;28;20502;-58
2022/04/19 08:29:13;;;;;;;10.48;7.20;;;19.80;55.90;;;;;;4991885;28;20201;-58
2022/04/19 08:31:43;;;;;;;10.15;6.72;;;19.80;55.90;;;;;;4992233;28;20197;-59
2022/04/19 08:34:14;;;;;;;11.30;6.55;;;19.80;56.00;;;;;;4991994;28;20193;-59
2022/04/19 08:36:46;;;;;;;8.15;6.75;;;19.80;56.00;;;;;;4991730;28;20227;-59
2022/04/19 08:39:17;;;;;;;10.32;6.68;;;19.70;56.00;;;;;;4994336;28;20252;-59
2022/04/19 08:41:48;;;;;;;12.27;7.28;;;19.70;56.00;;;;;;4995168;28;20205;-57
2022/04/19 08:44:21;;;;;;;10.63;7.25;;;19.60;56.00;;;;;;4995560;28;20193;-59
2022/04/19 08:46:51;;;;;;;9.57;7.13;;;19.60;56.10;;;;;;4995558;28;20241;-58
2022/04/19 08:49:22;;;;;;;12.00;7.15;;;19.60;56.10;;;;;;4996056;28;20260;-60
2022/04/19 08:51:53;;;;;;;10.05;7.05;;;19.60;56.10;;;;;;4995750;28;20256;-59
2022/04/19 08:59:59;;;;;;;10.20;7.32;;;19.50;56.10;;;;;;4995768;28;20204;-59
2022/04/19 09:02:32;;;;;;;10.60;7.45;;;19.50;56.10;;;;;;4995508;28;20251;-59
2022/04/19 09:05:16;;;;;;;9.85;7.15;;;19.50;56.20;;;;;;4995209;28;20221;-58
2022/04/19 09:07:47;;;;;;;11.95;7.50;;;19.40;56.10;;;;;;4995450;28;20201;-59
2022/04/19 09:10:26;;;;;;;11.15;6.93;;;19.40;56.20;;;;;;4995038;28;20248;-60
2022/04/19 09:13:05;;;;;;;11.93;6.93;;;19.40;56.20;;;;;;4995512;28;20236;-59
2022/04/19 09:15:38;;;;;;;15.38;7.60;;;19.40;56.30;;;;;;4995355;28;20217;-59
2022/04/19 09:18:21;;;;;;;10.93;7.35;;;19.40;56.30;;;;;;4995494;28;20264;-59
2022/04/19 09:20:53;;;;;;;11.35;7.35;;;19.30;56.30;;;;;;4995315;28;20233;-59
2022/04/19 09:23:25;;;;;;;10.35;7.10;;;19.30;56.30;;;;;;4994876;28;20208;-59
2022/04/19 09:25:58;;;;;;;10.35;7.15;;;19.30;56.30;;;;;;4994395;28;20308;-58
2022/04/19 09:28:29;;;;;;;13.18;8.05;;;19.20;56.30;;;;;;4995437;28;20573;-59
2022/04/19 09:31:03;;;;;;;11.55;7.60;;;19.20;56.40;;;;;;4994671;28;20205;-59
2022/04/19 09:33:34;;;;;;;11.63;7.82;;;19.20;56.40;;;;;;4994974;28;20198;-59
2022/04/19 09:36:05;;;;;;;9.90;7.35;;;19.20;56.40;;;;;;4994976;28;20218;-59
2022/04/19 09:38:37;;;;;;;7.40;5.45;;;19.20;56.40;;;;;;4994252;28;20229;-56
2022/04/19 09:41:08;;;;;;;7.35;4.40;;;19.20;56.30;;;;;;4994083;28;20670;-54
2022/04/19 09:43:39;;;;;;;10.93;5.47;;;19.10;55.20;;;;;;4994763;28;20682;-58
2022/04/19 09:46:17;;;;;;;20.45;11.80;;;19.00;55.20;;;;;;4994391;28;20214;-58
2022/04/19 09:48:51;;;;;;;21.10;11.50;;;18.90;57.10;;;;;;4994569;28;20197;-58
2022/04/19 09:51:21;;;;;;;20.88;10.70;;;18.90;58.70;;;;;;4993765;28;20236;-59
2022/04/19 09:53:52;;;;;;;22.48;11.48;;;18.90;59.10;;;;;;4994162;28;20248;-59
2022/04/19 09:56:23;;;;;;;21.23;10.73;;;18.90;59.40;;;;;;4993476;28;20217;-60
2022/04/19 09:58:54;;;;;;;21.25;10.40;;;18.90;59.20;;;;;;4993433;28;20280;-59
2022/04/19 10:09:47;;;;;;;15.05;9.23;;;18.90;58.90;;;;;;4994505;28;20251;-58
2022/04/19 10:12:20;;;;;;;17.67;9.35;;;18.80;58.80;;;;;;4993966;28;20202;-58
2022/04/19 10:14:52;;;;;;;17.00;9.15;;;18.80;58.60;;;;;;4989497;28;20451;-58
2022/04/19 10:17:25;;;;;;;16.40;8.70;;;18.90;58.60;;;;;;5005686;28;20247;-59
2022/04/19 10:19:58;;;;;;;15.07;8.65;;;18.80;58.40;;;;;;5010007;28;20197;-58
2022/04/19 10:22:29;;;;;;;15.73;8.85;;;18.80;58.40;;;;;;5010381;28;20280;-58
2022/04/19 10:25:02;;;;;;;15.88;8.52;;;18.80;58.30;;;;;;5010354;28;20240;-59
2022/04/19 10:27:36;;;;;;;14.30;8.68;;;18.80;58.30;;;;;;5010024;28;20217;-58
2022/04/19 10:30:08;;;;;;;13.52;8.80;;;18.80;58.20;;;;;;5010527;28;20668;-59
2022/04/19 10:32:40;;;;;;;14.57;8.57;;;18.80;58.20;;;;;;5009856;28;20719;-59
2022/04/19 10:35:12;;;;;;;13.63;8.57;;;18.70;58.10;;;;;;5010267;28;20275;-59
2022/04/19 10:37:45;;;;;;;13.90;8.50;;;18.70;58.00;;;;;;5010588;28;20213;-59
2022/04/19 10:40:15;;;;;;;14.48;7.82;;;18.70;58.00;;;;;;5009812;28;20673;-58
2022/04/19 10:42:47;;;;;;;15.05;8.45;;;18.70;58.00;;;;;;5010043;28;20280;-60
2022/04/19 10:45:25;;;;;;;12.75;8.00;;;18.70;57.90;;;;;;5010355;28;20681;-60
2022/04/19 10:48:10;;;;;;;13.65;7.63;;;18.70;57.90;;;;;;5010513;28;20200;-58
2022/04/19 10:50:44;;;;;;;11.73;7.15;;;18.70;57.90;;;;;;5007220;28;20243;-58
2022/04/19 10:53:14;;;;;;;9.50;6.88;;;18.70;57.80;;;;;;5010365;28;20544;-59
2022/04/19 10:56:02;;;;;;;9.15;7.10;;;18.60;57.80;;;;;;5010152;28;20247;-59
2022/04/19 10:58:42;;;;;;;12.77;8.00;;;18.60;57.80;;;;;;5009261;28;20217;-59
2022/04/19 11:01:31;;;;;;;11.80;7.53;;;18.60;57.80;;;;;;5009022;28;20193;-59
2022/04/19 11:04:04;;;;;;;12.23;7.38;;;18.60;57.70;;;;;;5009602;28;20195;-59
2022/04/19 11:06:40;;;;;;;10.98;7.05;;;18.50;57.60;;;;;;5009269;28;20275;-58
2022/04/19 11:09:26;;;;;;;9.95;7.15;;;18.50;57.60;;;;;;5009644;28;20196;-58
2022/04/19 11:11:58;;;;;;;10.30;7.07;;;18.50;57.60;;;;;;5009768;28;20205;-59
2022/04/19 11:14:48;;;;;;;10.77;6.60;;;18.50;57.60;;;;;;5009894;28;20193;-58
2022/04/19 11:17:26;;;;;;;10.23;6.80;;;18.50;57.60;;;;;;5008997;28;20224;-58
2022/04/19 11:20:00;;;;;;;9.52;6.38;;;18.50;57.60;;;;;;5010822;28;20606;-59
2022/04/19 11:22:46;;;;;;;10.50;5.95;;;18.50;57.60;;;;;;5009970;28;20262;-59
2022/04/19 11:25:16;;;;;;;9.93;6.68;;;18.50;57.60;;;;;;5009314;28;20217;-59
2022/04/19 11:28:21;;;;;;;10.93;6.75;;;18.40;57.60;;;;;;5009382;28;20225;-59
2022/04/19 11:31:13;;;;;;;10.93;6.80;;;18.40;57.60;;;;;;5008106;28;20243;-59
2022/04/19 11:33:44;;;;;;;11.13;6.93;;;18.40;57.60;;;;;;5009152;28;20573;-58
2022/04/19 11:36:19;;;;;;;9.40;6.60;;;18.40;57.60;;;;;;5006224;28;20253;-58
2022/04/19 11:38:51;;;;;;;10.73;6.22;;;18.40;57.60;;;;;;5009773;28;20224;-58
2022/04/19 11:47:02;;;;;;;9.82;6.47;;;18.30;57.60;;;;;;5008881;28;20288;-59
2022/04/19 11:49:36;;;;;;;9.25;6.03;;;18.30;57.50;;;;;;5009099;28;20260;-58
2022/04/19 11:52:11;;;;;;;9.15;6.05;;;18.30;57.60;;;;;;5009477;28;20270;-59
2022/04/19 11:54:42;;;;;;;6.95;5.70;;;18.30;57.60;;;;;;5008664;28;20240;-59
2022/04/19 11:57:15;;;;;;;9.02;6.22;;;18.30;57.60;;;;;;5008433;28;20278;-59
2022/04/19 11:59:45;;;;;;;9.57;5.50;;;18.30;57.50;;;;;;5008456;28;20367;-59
2022/04/19 12:02:17;;;;;;;8.00;5.65;;;18.20;57.50;;;;;;5007693;28;20220;-58
2022/04/19 12:04:55;;;;;;;9.65;6.40;;;18.20;57.50;;;;;;5008867;28;20581;-59
2022/04/19 12:07:27;;;;;;;8.27;5.50;;;18.20;57.50;;;;;;5008872;28;20616;-58
2022/04/19 12:10:01;;;;;;;9.55;5.93;;;18.20;57.40;;;;;;5008318;28;20196;-59
2022/04/19 12:12:32;;;;;;;8.75;6.00;;;18.20;57.40;;;;;;5006802;28;20727;-59
2022/04/19 12:15:03;;;;;;;7.57;5.50;;;18.20;57.50;;;;;;5009104;28;20223;-59
2022/04/19 12:17:33;;;;;;;7.72;5.63;;;18.20;57.40;;;;;;5008280;28;20243;-59
2022/04/19 12:20:05;;;;;;;9.60;5.93;;;18.20;57.50;;;;;;5006115;28;20255;-59
2022/04/19 12:22:39;;;;;;;9.68;6.32;;;18.20;58.10;;;;;;5007874;28;20618;-59
2022/04/19 12:25:11;;;;;;;7.63;5.50;;;18.20;57.50;;;;;;5007138;28;20219;-59
2022/04/19 12:27:42;;;;;;;8.18;5.65;;;18.10;57.40;;;;;;5007826;28;20597;-60
2022/04/19 12:30:14;;;;;;;8.18;5.95;;;18.10;57.40;;;;;;5008423;28;20250;-58
2022/04/19 12:32:55;;;;;;;8.50;5.78;;;18.10;57.40;;;;;;5004744;28;20193;-58
2022/04/19 12:35:33;;;;;;;7.45;5.30;;;18.10;57.40;;;;;;4991549;28;20244;-58
2022/04/19 12:38:14;;;;;;;8.48;5.50;;;18.10;57.40;;;;;;4991595;28;20571;-58
2022/04/19 12:40:45;;;;;;;11.35;6.03;;;18.10;57.40;;;;;;4990523;28;20245;-58
2022/04/19 12:43:18;;;;;;;7.22;5.72;;;18.10;57.40;;;;;;4990519;28;20204;-58
2022/04/19 12:45:49;;;;;;;7.35;5.30;;;18.10;57.40;;;;;;4990408;28;20770;-59
2022/04/19 12:48:23;;;;;;;7.22;5.03;;;18.10;57.40;;;;;;4990157;28;20207;-59
2022/04/19 12:51:03;;;;;;;6.32;5.07;;;18.10;57.40;;;;;;4990406;28;20254;-59
2022/04/19 12:53:40;;;;;;;6.95;4.90;;;18.00;57.30;;;;;;4990335;28;20197;-58
2022/04/19 12:59:15;;;;;;;8.23;5.25;;;18.00;57.40;;;;;;4989417;28;20240;-58
2022/04/19 13:01:46;;;;;;;8.75;4.93;;;18.00;57.30;;;;;;4990008;28;20201;-58
2022/04/19 13:04:16;;;;;;;6.78;4.72;;;18.00;57.30;;;;;;4989785;28;20197;-58
2022/04/19 13:12:22;;;;;;;6.70;5.25;;;18.00;57.40;;;;;;4990362;28;20299;-59
2022/04/19 13:14:54;;;;;;;7.25;4.60;;;18.00;57.40;;;;;;4989830;28;20221;-58
2022/04/19 13:17:25;;;;;;;7.32;4.70;;;18.00;57.40;;;;;;4989976;28;20588;-59
2022/04/19 13:19:55;;;;;;;7.28;4.50;;;17.90;57.30;;;;;;5002602;23;20763;-61
2022/04/19 13:22:26;;;;;;;6.75;4.60;;;17.90;57.30;;;;;;4990549;28;20202;-61
2022/04/19 13:24:59;;;;;;;6.20;4.55;;;17.90;57.30;;;;;;4990716;28;20217;-59
2022/04/19 13:27:33;;;;;;;5.88;5.28;;;17.90;57.40;;;;;;4994046;28;20204;-59
2022/04/19 13:30:04;;;;;;;5.60;4.82;;;17.90;57.30;;;;;;4993867;28;20272;-61
2022/04/19 13:32:35;;;;;;;7.32;4.88;;;17.90;57.30;;;;;;4993742;28;20572;-59
2022/04/19 13:35:06;;;;;;;7.40;4.40;;;17.90;57.40;;;;;;4993296;28;20228;-61
2022/04/19 13:40:26;;;;;;;6.20;4.32;;;17.90;57.30;;;;;;4974024;28;20248;-60
2022/04/19 13:42:56;;;;;;;5.63;4.70;;;17.90;57.30;;;;;;4974036;28;20205;-59
2022/04/19 13:45:27;;;;;;;5.75;4.63;;;17.90;57.90;;;;;;4973867;28;20218;-59
2022/04/19 13:47:57;;;;;;;5.47;4.40;;;17.90;57.30;;;;;;4973743;28;20261;-61
2022/04/19 13:50:28;;;;;;;6.05;4.57;;;17.80;57.30;;;;;;4993011;28;20202;-61
2022/04/19 13:52:59;;;;;;;6.80;4.22;;;17.80;57.30;;;;;;4993110;28;20705;-60
2022/04/19 13:55:31;;;;;;;6.82;4.25;;;17.90;57.40;;;;;;4993107;28;20253;-60
2022/04/19 13:58:02;;;;;;;5.90;4.22;;;17.90;57.40;;;;;;4993171;28;20198;-61
2022/04/19 14:00:32;;;;;;;4.28;3.88;;;17.80;57.30;;;;;;4992933;28;20323;-59
2022/04/19 14:03:03;;;;;;;6.25;4.40;;;17.80;57.30;;;;;;4993044;28;20610;-60
2022/04/19 14:05:34;;;;;;;5.30;4.00;;;17.80;57.30;;;;;;4992760;28;20639;-61
2022/04/19 14:08:04;;;;;;;6.20;4.38;;;17.80;57.30;;;;;;4993057;28;20343;-60
2022/04/19 14:10:37;;;;;;;5.25;3.92;;;17.80;57.30;;;;;;4992391;28;20197;-60
2022/04/19 14:13:07;;;;;;;5.43;4.47;;;17.80;57.20;;;;;;4992853;28;20257;-60
2022/04/19 14:15:39;;;;;;;4.88;4.22;;;17.80;57.30;;;;;;4992491;28;20622;-59
2022/04/19 14:18:10;;;;;;;4.63;3.95;;;17.80;57.30;;;;;;4992347;28;20197;-59
2022/04/19 14:20:40;;;;;;;6.40;4.53;;;17.80;57.30;;;;;;5004872;23;20311;-59
2022/04/19 14:23:11;;;;;;;5.43;4.03;;;17.80;57.30;;;;;;4992979;28;20197;-59
2022/04/19 14:25:44;;;;;;;5.53;4.18;;;17.80;57.30;;;;;;4989951;28;20213;-59
2022/04/19 14:28:14;;;;;;;5.55;4.20;;;17.80;57.30;;;;;;4981499;28;20272;-59